Terminal Aerodrome Forecast
Issued by NWS

Home | Current Version | Previous Version | Text Only | Print | Product List | Glossary On
Versions: 1 2 3 4 5 6 7 8 9 10 11 12 13 14 15 16 17 18 19 20
244
FTUS43 KILX 281134
TAFCMI
TAF
KCMI 281134Z 2812/2912 13006KT P6SM BKN110
     FM281500 15012KT P6SM VCSH OVC070
     FM282000 13013KT P6SM VCTS OVC060CB
     FM282300 12011KT P6SM VCSH OVC015
     FM290500 VRB03KT 5SM -SHRA OVC015
     FM290900 07005KT 5SM SHRA OVC010=

USA.gov is the U.S. government's official web portal to all federal, state and local government web resources and services.